Time;durP1;ratioP1;P1;durP2;ratioP2;P2;SDS_P1;SDS_P2;PMS_P1;PMS_P2;Temp;Humidity;BMP_temperature;BMP_pressure;BME280_temperature;BME280_humidity;BME280_pressure;Samples;Min_cycle;Max_cycle;Signal;HPM_P1;HPM_P2
2022/07/20 00:00:45;;;;;;;7.32;6.57;;;20.80;87.80;;;21.55;54.33;97947.88;5142018;28;20254;-60
2022/07/20 00:03:19;;;;;;;8.18;5.90;;;20.70;87.50;;;21.49;54.82;97950.38;5139208;28;20259;-61
2022/07/20 00:05:53;;;;;;;6.20;5.60;;;20.60;88.60;;;21.46;54.93;97947.75;5141182;28;20200;-59
2022/07/20 00:11:23;;;;;;;6.68;5.95;;;20.60;88.90;;;21.45;54.87;97951.16;5141049;28;20235;-60
2022/07/20 00:14:01;;;;;;;7.47;5.93;;;20.50;88.90;;;21.36;55.12;97948.41;5141957;28;20212;-61
2022/07/20 00:16:36;;;;;;;6.72;5.75;;;20.50;88.70;;;21.32;55.76;97951.81;5140471;28;20203;-61
2022/07/20 00:19:09;;;;;;;6.47;5.85;;;20.40;90.00;;;21.31;55.74;97952.66;5142472;28;20644;-57
2022/07/20 00:21:43;;;;;;;6.38;5.78;;;20.40;89.40;;;21.23;55.56;97951.63;5139294;28;20271;-60
2022/07/20 00:24:16;;;;;;;7.05;5.82;;;20.40;89.80;;;21.26;55.41;97943.88;5143562;28;20208;-58
2022/07/20 00:26:50;;;;;;;6.63;5.82;;;20.50;89.60;;;21.26;55.40;97946.50;5140230;28;20204;-58
2022/07/20 00:29:23;;;;;;;6.38;5.70;;;20.40;89.50;;;21.19;55.45;97942.06;5141840;28;20622;-60
2022/07/20 00:31:56;;;;;;;7.40;5.95;;;20.40;89.20;;;21.15;55.97;97944.59;5141159;28;20692;-60
2022/07/20 00:34:29;;;;;;;6.30;5.70;;;20.30;90.00;;;;;;5137139;28;20263;-59
2022/07/20 00:37:03;;;;;;;7.18;6.10;;;20.20;90.30;;;21.07;56.10;97948.78;5134584;28;20262;-59
2022/07/20 00:39:37;;;;;;;6.88;6.18;;;20.20;90.60;;;21.00;56.48;97938.25;5136967;28;20210;-58
2022/07/20 00:42:10;;;;;;;6.43;5.93;;;20.10;90.90;;;20.94;56.62;97941.63;5134106;28;21021;-59
2022/07/20 00:44:43;;;;;;;6.88;6.20;;;20.00;91.00;;;20.88;57.25;97941.53;5136606;28;20258;-60
2022/07/20 00:47:16;;;;;;;6.70;6.00;;;20.00;91.30;;;20.77;57.63;97932.66;5138853;28;20262;-61
2022/07/20 00:49:49;;;;;;;6.78;6.18;;;19.90;91.60;;;20.74;57.68;97927.41;5131707;28;20247;-59
2022/07/20 00:52:24;;;;;;;6.72;6.07;;;19.80;91.80;;;20.66;57.67;97928.16;5140210;28;20290;-59
2022/07/20 00:54:58;;;;;;;7.10;6.40;;;19.70;91.80;;;20.64;57.92;97918.59;5137892;28;20254;-60
2022/07/20 00:57:32;;;;;;;6.70;5.90;;;19.70;91.80;;;20.56;57.23;97918.44;5143492;28;20258;-60
2022/07/20 01:00:08;;;;;;;7.00;6.30;;;19.70;91.10;;;20.53;57.05;97923.56;5138748;28;20219;-60
2022/07/20 01:02:42;;;;;;;7.70;5.78;;;19.60;91.30;;;20.48;57.52;97917.38;5142478;28;20219;-59
2022/07/20 01:05:15;;;;;;;7.38;5.68;;;19.60;91.60;;;20.52;57.25;97920.91;5140692;28;20217;-61
2022/07/20 01:07:50;;;;;;;6.60;6.00;;;19.60;91.50;;;20.44;56.94;97924.25;5139661;28;20797;-59
2022/07/20 01:10:23;;;;;;;6.18;5.60;;;19.60;91.20;;;20.47;56.90;97928.63;5138762;28;20208;-56
2022/07/20 01:12:57;;;;;;;5.90;5.40;;;19.60;91.10;;;20.45;57.52;97931.19;5139203;28;20263;-61
2022/07/20 01:15:30;;;;;;;7.88;6.50;;;19.60;91.50;;;20.43;57.54;97932.00;5136130;28;20208;-60
2022/07/20 01:18:03;;;;;;;6.18;5.57;;;19.60;91.70;;;20.30;57.76;97925.69;5139605;28;20215;-59
2022/07/20 01:20:37;;;;;;;6.57;5.97;;;19.40;92.00;;;20.29;58.04;97920.47;5140977;28;20256;-60
2022/07/20 01:23:11;;;;;;;6.78;6.13;;;19.50;92.10;;;20.29;58.40;97923.06;5138817;28;20212;-60
2022/07/20 01:25:45;;;;;;;5.85;5.38;;;19.50;92.10;;;20.25;57.52;97916.94;5134187;28;20202;-61
2022/07/20 01:28:18;;;;;;;6.88;5.32;;;19.40;91.60;;;20.26;56.86;97913.53;5142774;28;20336;-60
2022/07/20 01:30:51;;;;;;;6.18;5.53;;;19.40;91.30;;;20.20;57.52;97919.47;5136358;28;20200;-60
2022/07/20 01:33:24;;;;;;;7.15;5.63;;;19.30;91.70;;;20.17;57.89;97914.22;5139965;28;20278;-61
2022/07/20 01:35:57;;;;;;;6.30;5.70;;;19.20;92.20;;;20.13;58.61;97919.31;5139454;28;20208;-60
2022/07/20 01:38:32;;;;;;;6.57;5.93;;;19.20;92.30;;;20.03;59.04;97910.47;5143239;28;20208;-61
2022/07/20 01:41:07;;;;;;;6.43;5.82;;;19.10;92.70;;;19.96;59.07;97918.94;5137670;28;20226;-61
2022/07/20 01:43:40;;;;;;;6.07;5.53;;;19.10;92.80;;;19.94;58.89;97915.44;5141865;28;20208;-57
2022/07/20 01:46:13;;;;;;;5.88;5.35;;;19.00;92.70;;;19.90;59.48;97922.28;5142657;28;20735;-59
2022/07/20 01:48:46;;;;;;;5.72;5.22;;;19.00;93.20;;;19.86;59.33;97919.59;5141194;28;20200;-61
2022/07/20 01:51:20;;;;;;;6.45;5.70;;;18.90;93.30;;;19.75;59.50;97909.88;5141775;28;20791;-61
2022/07/20 01:53:54;;;;;;;7.15;6.00;;;18.80;93.30;;;19.75;59.47;97915.06;5141045;28;20656;-61
2022/07/20 01:56:27;;;;;;;6.70;6.00;;;18.70;93.50;;;19.58;59.77;97916.38;5142110;28;20208;-59
2022/07/20 01:59:01;;;;;;;7.70;5.88;;;18.60;93.70;;;19.59;59.85;97915.53;5142644;28;20196;-61
2022/07/20 02:01:34;;;;;;;7.13;6.43;;;18.60;93.60;;;19.55;59.95;97908.53;5146460;28;20282;-61
2022/07/20 02:04:07;;;;;;;6.90;6.30;;;18.70;93.70;;;19.62;59.94;97920.78;5144597;28;20303;-61
2022/07/20 02:06:40;;;;;;;7.22;6.22;;;18.80;93.40;;;19.66;60.22;97912.28;5146383;28;20223;-58
2022/07/20 02:09:15;;;;;;;6.40;5.78;;;18.90;93.70;;;19.62;60.18;97913.00;5142692;28;20246;-59
2022/07/20 02:11:48;;;;;;;6.47;5.72;;;18.80;93.60;;;19.59;60.62;97908.63;5149598;28;20683;-57
2022/07/20 02:14:21;;;;;;;7.78;6.50;;;18.80;93.90;;;19.55;60.81;97911.13;5144601;28;20286;-59
2022/07/20 02:16:55;;;;;;;6.50;5.78;;;18.80;94.30;;;19.58;60.21;97911.19;5145421;28;20196;-60
2022/07/20 02:19:28;;;;;;;6.43;5.80;;;18.70;93.90;;;19.50;61.11;97918.78;5146042;28;20299;-59
2022/07/20 02:22:07;;;;;;;6.53;5.63;;;18.70;94.20;;;19.55;60.54;97913.72;5141787;28;20602;-58
2022/07/20 02:24:42;;;;;;;6.35;5.75;;;18.70;93.90;;;19.58;60.25;97919.84;5145771;28;20628;-58
2022/07/20 02:27:15;;;;;;;6.22;5.57;;;18.80;93.80;;;19.64;60.23;97920.81;5144120;28;20203;-58
2022/07/20 02:29:48;;;;;;;6.35;5.75;;;18.80;93.70;;;19.55;60.24;97926.69;5145798;28;20208;-58
2022/07/20 02:32:21;;;;;;;6.68;5.78;;;18.60;93.90;;;19.55;60.54;97926.69;5146227;28;20644;-60
2022/07/20 02:34:55;;;;;;;6.20;5.63;;;18.60;94.40;;;19.49;61.13;97923.97;5143290;28;20676;-61
2022/07/20 02:37:28;;;;;;;6.57;5.97;;;18.60;94.40;;;19.45;61.29;97929.91;5140819;28;20274;-60
2022/07/20 02:40:02;;;;;;;6.07;5.43;;;18.50;94.60;;;19.39;60.89;97924.56;5143120;28;20200;-58
2022/07/20 02:42:36;;;;;;;7.07;5.95;;;18.50;94.50;;;19.30;61.87;97923.50;5144087;28;20277;-58
2022/07/20 02:45:10;;;;;;;6.50;5.90;;;18.50;94.90;;;19.25;61.54;97926.84;5138749;28;20459;-59
2022/07/20 02:47:44;;;;;;;6.43;5.80;;;18.40;94.80;;;19.21;62.30;97931.06;5143168;28;20254;-58
2022/07/20 02:50:18;;;;;;;6.30;5.63;;;18.30;95.20;;;19.25;61.74;97919.94;5141150;28;20228;-61
2022/07/20 02:52:51;;;;;;;6.47;5.88;;;18.40;95.00;;;19.22;61.65;97930.22;5139326;28;20251;-60
2022/07/20 02:55:25;;;;;;;6.38;5.88;;;18.40;95.20;;;19.23;61.12;97928.50;5144141;28;20227;-61
2022/07/20 02:57:59;;;;;;;8.07;6.13;;;18.40;94.90;;;19.23;61.57;97926.81;5140988;28;20277;-61
2022/07/20 03:00:33;;;;;;;7.38;5.55;;;18.30;95.10;;;19.21;61.98;97927.59;5141962;28;20204;-60
2022/07/20 03:03:08;;;;;;;6.53;5.93;;;18.40;95.30;;;19.15;62.24;97930.94;5142400;28;20247;-61
2022/07/20 03:05:41;;;;;;;6.45;5.85;;;18.30;95.30;;;19.09;61.90;97936.84;5142519;28;20299;-59
2022/07/20 03:08:14;;;;;;;6.22;5.72;;;18.10;95.50;;;19.09;62.17;97936.84;5143510;28;20295;-54
2022/07/20 03:10:48;;;;;;;7.22;6.07;;;18.20;95.50;;;19.04;61.61;97934.97;5138283;28;20205;-56
2022/07/20 03:13:21;;;;;;;6.45;5.78;;;18.20;95.40;;;18.98;62.49;97940.88;5141513;28;20718;-53
2022/07/20 03:15:55;;;;;;;6.45;5.40;;;18.10;95.80;;;18.95;62.53;97933.03;5139448;28;20212;-55
2022/07/20 03:18:28;;;;;;;6.00;5.50;;;18.10;95.60;;;18.83;62.97;97933.59;5143650;28;20204;-52
2022/07/20 03:21:01;;;;;;;6.15;5.55;;;18.10;96.00;;;18.79;63.37;97934.34;5134636;28;20306;-56
2022/07/20 03:23:34;;;;;;;6.05;5.50;;;18.00;96.10;;;18.81;63.23;97935.25;5138723;28;20267;-51
2022/07/20 03:26:09;;;;;;;5.75;5.15;;;18.00;96.30;;;18.72;62.69;97926.34;5142248;28;20452;-52
2022/07/20 03:28:42;;;;;;;6.72;5.35;;;17.90;95.90;;;18.73;63.06;97928.97;5141940;28;20624;-58
2022/07/20 03:31:15;;;;;;;5.40;4.90;;;17.90;96.20;;;18.74;62.31;97922.97;5143775;28;20251;-52
2022/07/20 03:33:56;;;;;;;5.63;4.97;;;17.90;96.00;;;18.78;62.52;97929.13;5139282;28;20615;-51
2022/07/20 03:36:29;;;;;;;6.10;5.50;;;17.90;95.60;;;18.79;62.99;97929.16;5140349;28;20208;-52
2022/07/20 03:39:02;;;;;;;5.55;5.05;;;18.00;95.80;;;18.84;62.60;97932.75;5135378;28;20232;-59
2022/07/20 03:41:36;;;;;;;6.22;4.85;;;18.10;95.80;;;18.88;62.70;97937.16;5147099;28;20227;-56
2022/07/20 03:44:09;;;;;;;5.80;5.22;;;18.10;95.80;;;18.97;62.40;97930.47;5138252;28;20192;-55
2022/07/20 03:46:42;;;;;;;7.03;5.63;;;18.10;95.80;;;18.98;62.86;97937.41;5143126;28;20649;-53
2022/07/20 03:49:16;;;;;;;6.57;5.97;;;18.20;95.90;;;18.98;62.57;97929.63;5133091;28;20204;-52
2022/07/20 03:51:49;;;;;;;6.00;5.32;;;18.20;95.60;;;18.98;62.48;97924.47;5134512;28;20319;-56
2022/07/20 03:54:22;;;;;;;6.15;5.55;;;18.10;95.80;;;18.98;63.01;97932.22;5135605;28;20230;-56
2022/07/20 03:56:57;;;;;;;6.13;5.53;;;18.10;96.00;;;18.97;63.18;97925.28;5134975;28;20204;-52
2022/07/20 03:59:30;;;;;;;6.55;5.95;;;18.20;96.10;;;18.95;62.66;97927.84;5137322;28;20695;-57
2022/07/20 04:02:03;;;;;;;8.63;5.55;;;18.20;96.00;;;18.97;62.69;97930.47;5135747;28;20753;-54
2022/07/20 04:04:36;;;;;;;5.15;4.75;;;18.20;96.30;;;18.99;62.89;97921.88;5136093;28;20208;-57
2022/07/20 04:07:10;;;;;;;5.78;5.28;;;18.10;96.50;;;19.01;63.28;97932.31;5132777;28;20201;-56
2022/07/20 04:09:46;;;;;;;6.22;5.72;;;18.20;96.20;;;19.07;62.77;97929.84;5136665;28;20718;-57
2022/07/20 04:12:24;;;;;;;5.85;5.35;;;18.30;96.00;;;19.07;62.97;97937.63;5132426;28;20224;-54
2022/07/20 04:14:57;;;;;;;6.38;5.78;;;18.30;96.10;;;19.07;63.06;97938.50;5138199;28;20219;-53
2022/07/20 04:17:30;;;;;;;5.63;5.13;;;18.30;96.30;;;19.06;62.87;97935.91;5136443;28;20239;-52
2022/07/20 04:20:05;;;;;;;5.53;5.07;;;18.20;96.40;;;19.09;62.70;97938.56;5141704;28;20314;-54
2022/07/20 04:22:38;;;;;;;5.82;5.25;;;18.20;96.40;;;19.10;63.19;97932.53;5137911;28;20627;-52
2022/07/20 04:25:11;;;;;;;5.80;5.30;;;18.20;96.40;;;19.07;62.71;97941.09;5135031;28;20653;-57
2022/07/20 04:27:46;;;;;;;6.90;6.03;;;18.20;96.60;;;19.08;63.38;97942.84;5141781;28;20259;-51
2022/07/20 04:30:20;;;;;;;5.68;5.07;;;18.20;96.50;;;19.10;63.07;97937.72;5139848;28;20204;-51
2022/07/20 04:32:55;;;;;;;6.20;5.63;;;18.30;96.60;;;19.11;63.49;97935.16;5130838;28;21824;-55
2022/07/20 04:35:28;;;;;;;6.10;5.50;;;18.30;96.60;;;19.14;63.39;97939.53;5134448;28;20267;-55
2022/07/20 04:38:01;;;;;;;6.07;5.57;;;18.30;96.80;;;19.19;63.73;97940.50;5134183;28;20236;-55
2022/07/20 04:40:34;;;;;;;5.78;5.15;;;18.40;96.60;;;19.23;63.70;97942.38;5134186;28;20319;-54
2022/07/20 04:43:10;;;;;;;6.30;5.38;;;18.40;96.90;;;19.35;63.35;97945.25;5134541;28;20206;-51
2022/07/20 04:45:43;;;;;;;6.85;5.70;;;18.50;96.70;;;19.38;62.84;97951.34;5135697;28;20313;-53
2022/07/20 04:48:16;;;;;;;6.03;5.53;;;18.50;96.30;;;19.43;62.58;97952.31;5135636;28;20652;-55
2022/07/20 04:50:50;;;;;;;6.55;5.80;;;18.70;95.90;;;19.46;62.50;97944.59;5134347;28;20993;-58
2022/07/20 04:53:23;;;;;;;6.65;6.07;;;18.70;95.80;;;19.53;62.24;97946.50;5136260;28;20232;-52
2022/07/20 04:55:56;;;;;;;7.10;6.40;;;18.70;96.10;;;19.58;62.71;97947.50;5142161;28;20196;-56
2022/07/20 04:58:31;;;;;;;5.57;5.07;;;18.70;96.40;;;19.62;63.04;97948.44;5137732;28;20279;-56
2022/07/20 05:01:04;;;;;;;5.22;4.82;;;18.80;96.60;;;19.71;62.46;97944.34;5140105;28;20223;-57
2022/07/20 05:03:38;;;;;;;5.70;5.20;;;18.70;96.30;;;19.77;62.42;97948.81;5136053;28;20752;-55
2022/07/20 05:06:14;;;;;;;5.68;5.05;;;18.90;96.40;;;20.01;61.71;97951.06;5142483;28;20278;-57
2022/07/20 05:08:47;;;;;;;6.22;5.60;;;19.10;96.20;;;20.30;60.94;97946.47;5137095;28;20664;-56
2022/07/20 05:11:21;;;;;;;5.82;5.20;;;19.30;95.60;;;20.56;60.64;97938.34;5139565;28;20306;-58
2022/07/20 05:13:55;;;;;;;5.47;4.97;;;19.60;95.60;;;20.80;59.97;97950.91;5140498;28;20321;-56
2022/07/20 05:16:29;;;;;;;6.13;5.15;;;19.80;95.00;;;21.07;58.96;97946.19;5141737;28;20204;-56
2022/07/20 05:19:02;;;;;;;6.53;5.40;;;20.00;94.50;;;21.43;58.08;97952.84;5133798;28;20640;-55
2022/07/20 05:21:37;;;;;;;5.07;4.65;;;20.30;93.90;;;21.72;56.57;97960.22;5131301;28;20287;-57
2022/07/20 05:24:10;;;;;;;5.93;5.32;;;20.50;93.30;;;21.96;55.89;97947.56;5140374;28;20196;-56
2022/07/20 05:26:43;;;;;;;5.88;5.13;;;20.80;92.70;;;22.67;54.05;97940.63;5126632;28;20247;-56
2022/07/20 05:29:18;;;;;;;7.32;5.47;;;21.60;91.50;;;23.52;52.20;97944.88;5138585;28;20235;-57
2022/07/20 05:31:51;;;;;;;5.63;4.82;;;22.40;90.30;;;24.32;50.67;97945.34;5138516;28;20314;-56
2022/07/20 05:34:24;;;;;;;5.22;4.82;;;23.00;89.20;;;24.94;48.37;97942.06;5138692;28;20254;-56
2022/07/20 05:36:57;;;;;;;5.70;5.18;;;23.60;86.20;;;25.55;46.68;97930.72;5141963;28;20231;-57
2022/07/20 05:39:30;;;;;;;4.78;4.38;;;24.10;83.70;;;25.95;45.29;97934.16;5139895;28;20226;-55
2022/07/20 05:42:04;;;;;;;5.95;5.40;;;24.50;82.20;;;26.40;43.76;97936.63;5144916;28;20238;-58
2022/07/20 05:44:39;;;;;;;5.85;5.30;;;24.70;79.30;;;26.73;43.41;97933.84;5139885;28;20325;-56
2022/07/20 05:47:12;;;;;;;5.80;5.30;;;25.00;79.80;;;27.08;41.24;97930.13;5142023;28;20600;-57
2022/07/20 05:49:47;;;;;;;5.68;5.15;;;25.40;76.60;;;27.30;40.90;97933.47;5143833;28;20200;-57
2022/07/20 05:52:20;;;;;;;5.78;5.18;;;25.60;75.60;;;27.23;41.08;97933.53;5142001;28;20227;-56
2022/07/20 05:54:53;;;;;;;5.80;5.20;;;25.60;75.50;;;27.14;41.20;97934.44;5141972;28;20321;-55
2022/07/20 05:57:26;;;;;;;5.43;4.93;;;25.70;75.30;;;27.65;39.65;97936.66;5133820;28;20207;-59
2022/07/20 06:00:01;;;;;;;6.63;5.53;;;25.90;73.30;;;27.87;39.13;97946.06;5143472;28;20275;-57
2022/07/20 06:02:34;;;;;;;5.53;5.00;;;26.10;72.80;;;27.76;39.60;97947.94;5144276;28;20227;-57
2022/07/20 06:05:09;;;;;;;5.30;4.80;;;26.10;73.40;;;28.16;38.80;97940.53;5141978;28;20234;-57
2022/07/20 06:07:42;;;;;;;5.80;5.18;;;26.20;72.30;;;28.49;37.59;97943.63;5138384;28;20694;-57
2022/07/20 06:10:18;;;;;;;5.60;5.10;;;26.20;71.90;;;28.21;39.73;97943.06;5137710;28;20644;-57
2022/07/20 06:12:51;;;;;;;4.97;4.53;;;26.40;73.40;;;28.86;37.66;97943.13;5143488;28;20312;-57
2022/07/20 06:15:26;;;;;;;5.88;4.75;;;26.80;70.90;;;29.01;37.50;97949.91;5141333;28;20227;-56
2022/07/20 06:18:00;;;;;;;7.20;5.15;;;26.70;71.90;;;29.02;37.22;97949.91;5141825;28;20203;-57
2022/07/20 06:20:33;;;;;;;5.53;4.47;;;27.10;71.40;;;29.56;35.19;97949.94;5144325;28;20199;-57
2022/07/20 06:23:06;;;;;;;5.80;4.85;;;27.30;68.60;;;29.68;35.54;97943.59;5138265;28;20232;-56
2022/07/20 06:25:39;;;;;;;7.80;4.82;;;27.40;68.50;;;29.99;35.09;97943.91;5135271;28;20231;-57
2022/07/20 06:28:12;;;;;;;8.55;4.72;;;27.50;69.20;;;30.51;35.22;97945.50;5142641;28;20242;-59
2022/07/20 06:30:46;;;;;;;5.72;4.63;;;28.00;69.00;;;30.86;33.89;97951.78;5139456;28;20210;-55
2022/07/20 06:33:19;;;;;;;5.65;4.97;;;28.30;67.80;;;31.25;33.02;97956.16;5137543;28;20281;-53
2022/07/20 06:35:53;;;;;;;5.72;4.47;;;28.70;65.70;;;31.42;32.66;97957.53;5142864;28;20254;-59
2022/07/20 06:38:26;;;;;;;5.53;5.03;;;28.90;65.70;;;31.71;32.55;97955.91;5132287;28;20644;-57
2022/07/20 06:40:59;;;;;;;5.10;4.70;;;29.00;65.70;;;31.60;32.55;97961.47;5137200;28;20282;-56
2022/07/20 06:43:32;;;;;;;6.22;4.53;;;29.30;64.90;;;31.85;32.58;97951.13;5138670;28;20298;-57
2022/07/20 06:46:07;;;;;;;5.10;4.50;;;29.50;64.30;;;32.00;32.15;97954.28;5141007;28;20632;-55
2022/07/20 06:48:40;;;;;;;4.63;4.18;;;29.60;63.90;;;32.64;31.05;97952.44;5143350;28;20199;-57
2022/07/20 06:51:13;;;;;;;4.90;4.40;;;30.20;63.30;;;33.15;30.35;97957.06;5133062;28;20251;-55
2022/07/20 06:53:46;;;;;;;4.95;4.55;;;30.60;62.60;;;32.87;30.44;97961.47;5135034;28;20236;-57
2022/07/20 06:56:19;;;;;;;4.70;4.20;;;30.70;61.50;;;33.43;29.72;97965.00;5135626;28;20266;-58
2022/07/20 06:58:52;;;;;;;5.10;4.50;;;30.90;61.20;;;33.64;30.06;97967.88;5139547;28;20243;-58
2022/07/20 07:01:27;;;;;;;4.75;4.30;;;31.20;61.80;;;33.71;29.49;97968.50;5138622;28;20310;-59
2022/07/20 07:04:00;;;;;;;4.32;3.90;;;31.40;60.10;;;34.16;28.83;97975.81;5139916;28;20231;-57
2022/07/20 07:06:33;;;;;;;4.40;3.92;;;31.50;59.10;;;34.24;28.81;97963.13;5143026;28;20643;-58
2022/07/20 07:09:06;;;;;;;7.22;4.43;;;31.80;59.20;;;34.59;28.06;97969.81;5130680;28;20200;-56
2022/07/20 07:11:40;;;;;;;4.68;4.05;;;32.10;58.90;;;34.40;28.75;97966.97;5138727;28;20228;-59
2022/07/20 07:14:13;;;;;;;5.15;4.20;;;32.10;58.80;;;34.85;27.29;97960.81;5138270;28;20647;-58
2022/07/20 07:16:47;;;;;;;4.75;3.90;;;32.40;57.40;;;34.95;27.83;97962.19;5126587;28;20232;-57
2022/07/20 07:19:20;;;;;;;4.68;4.28;;;32.40;58.40;;;35.13;27.41;97965.09;5132649;28;20199;-57
2022/07/20 07:21:53;;;;;;;6.50;3.85;;;32.60;57.90;;;35.51;27.38;97971.47;5135269;28;20294;-55
2022/07/20 07:24:26;;;;;;;4.28;3.88;;;33.00;57.90;;;35.21;28.31;97957.66;5138714;28;20238;-60
2022/07/20 07:27:00;;;;;;;4.93;4.03;;;33.00;58.30;;;35.72;27.95;97969.75;5141793;28;20241;-59
2022/07/20 07:29:33;;;;;;;5.32;4.20;;;33.20;58.60;;;35.43;27.89;97961.16;5134849;28;20286;-61
2022/07/20 07:32:13;;;;;;;4.28;3.88;;;33.30;57.90;;;36.05;26.42;97967.44;5139990;28;20358;-58
2022/07/20 07:34:47;;;;;;;4.70;4.15;;;33.60;56.80;;;36.09;27.27;97962.84;5137782;28;20317;-59
2022/07/20 07:37:20;;;;;;;5.13;3.63;;;33.60;57.60;;;36.41;26.15;97963.19;5139110;28;20238;-58
2022/07/20 07:39:53;;;;;;;4.45;3.88;;;33.80;56.80;;;36.49;26.30;97956.59;5140832;28;20246;-60
2022/07/20 07:42:26;;;;;;;4.80;3.72;;;33.80;56.20;;;36.91;24.92;97963.50;5131367;28;20243;-57
2022/07/20 07:45:04;;;;;;;5.25;4.10;;;33.90;55.80;;;37.25;25.34;97966.38;5136289;28;20199;-60
2022/07/20 07:47:38;;;;;;;4.53;4.07;;;34.30;56.20;;;37.02;25.37;97955.03;5142306;28;20203;-60
2022/07/20 07:50:11;;;;;;;5.90;4.25;;;34.00;56.50;;;37.51;25.21;97957.97;5142838;28;20199;-58
2022/07/20 07:52:44;;;;;;;4.78;4.03;;;34.50;55.70;;;37.83;23.78;97952.78;5138614;28;20219;-60
2022/07/20 07:55:28;;;;;;;4.68;3.70;;;34.60;55.30;;;37.94;24.05;97961.13;5131339;28;20223;-56
2022/07/20 07:58:02;;;;;;;5.63;3.97;;;34.50;55.20;;;38.11;24.54;97957.56;5136022;28;20293;-58
2022/07/20 08:00:40;;;;;;;4.75;4.00;;;34.70;55.40;;;38.57;23.93;97952.44;5141339;28;20687;-58
2022/07/20 08:03:14;;;;;;;4.55;4.10;;;34.90;55.50;;;38.38;24.36;97957.91;5135114;28;20718;-57
2022/07/20 08:05:47;;;;;;;4.47;4.07;;;34.80;56.10;;;38.87;23.91;97952.59;5138026;28;20632;-58
2022/07/20 08:08:20;;;;;;;5.18;3.83;;;35.00;55.60;;;39.20;23.45;97954.28;5134446;28;20239;-59
2022/07/20 08:10:53;;;;;;;4.53;4.10;;;35.20;55.40;;;39.02;23.63;97960.69;5134811;28;20306;-57
2022/07/20 08:13:27;;;;;;;4.40;4.00;;;35.00;55.50;;;39.17;23.24;97954.47;5142904;28;20207;-57
2022/07/20 08:16:00;;;;;;;5.35;3.92;;;35.20;54.90;;;38.65;24.00;97957.38;5136074;28;20649;-58
2022/07/20 08:18:35;;;;;;;4.97;4.10;;;34.90;55.30;;;38.40;24.66;97963.16;5134668;28;20227;-59
2022/07/20 08:21:08;;;;;;;4.78;4.00;;;34.90;55.60;;;37.48;25.68;97960.78;5141133;28;20683;-58
2022/07/20 08:23:41;;;;;;;4.43;3.97;;;34.60;55.30;;;37.35;25.41;97957.84;5138015;28;20246;-58
2022/07/20 08:26:14;;;;;;;4.15;3.70;;;34.60;55.50;;;37.34;25.45;97961.44;5141089;28;20223;-60
2022/07/20 08:28:47;;;;;;;4.10;3.72;;;34.80;54.90;;;37.56;25.17;97958.59;5140459;28;20239;-55
2022/07/20 08:31:20;;;;;;;4.05;3.67;;;35.30;53.70;;;37.68;24.73;97949.09;5128778;28;20704;-60
2022/07/20 08:33:55;;;;;;;4.97;4.18;;;35.50;53.60;;;37.67;24.58;97949.19;5140461;28;20210;-58
2022/07/20 08:36:28;;;;;;;6.13;4.57;;;35.50;53.90;;;37.76;24.25;97956.72;5134661;28;20251;-58
2022/07/20 08:39:02;;;;;;;4.22;3.85;;;35.50;53.90;;;37.83;23.78;97960.78;5138393;28;20255;-59
2022/07/20 08:41:35;;;;;;;5.05;4.18;;;35.60;52.60;;;37.64;24.75;97966.22;5137296;28;20242;-58
2022/07/20 08:44:08;;;;;;;6.95;4.47;;;35.60;53.20;;;37.60;23.94;97951.28;5133717;28;20222;-59
2022/07/20 08:46:44;;;;;;;6.13;4.30;;;35.60;53.00;;;37.58;23.76;97954.06;5129677;28;20663;-60
2022/07/20 08:49:21;;;;;;;4.68;4.30;;;35.60;52.60;;;37.71;24.51;97958.75;5132747;28;20199;-60
2022/07/20 08:51:54;;;;;;;4.72;4.28;;;35.90;53.60;;;37.72;23.92;97956.03;5138638;28;20250;-60
2022/07/20 08:54:28;;;;;;;4.38;4.03;;;36.10;52.30;;;37.58;24.42;97959.41;5142737;28;20726;-58
2022/07/20 08:57:09;;;;;;;6.25;4.50;;;35.70;52.90;;;37.64;24.01;97952.88;5139583;28;20286;-58
2022/07/20 08:59:42;;;;;;;4.70;4.10;;;35.90;52.40;;;37.62;24.00;97960.09;5132520;28;20267;-60
2022/07/20 09:02:16;;;;;;;6.93;4.57;;;36.00;52.40;;;37.60;24.62;97949.53;5137620;28;20274;-61
2022/07/20 09:04:55;;;;;;;4.32;4.03;;;36.00;52.50;;;37.49;25.21;97946.53;5138591;28;20299;-61
2022/07/20 09:07:40;;;;;;;4.88;4.32;;;36.00;53.00;;;37.64;23.83;97943.06;5134208;28;20278;-56
2022/07/20 09:10:16;;;;;;;7.32;4.45;;;36.10;51.80;;;37.61;24.22;97942.38;5130394;28;20671;-57
2022/07/20 09:12:58;;;;;;;4.05;3.75;;;36.10;51.60;;;37.81;23.76;97936.00;5138094;28;20711;-59
2022/07/20 09:15:38;;;;;;;4.75;4.28;;;36.40;51.20;;;37.64;24.44;97936.88;5134488;28;20261;-57
2022/07/20 09:18:18;;;;;;;5.03;4.60;;;36.30;51.60;;;37.62;24.64;97934.28;5130433;28;20573;-55
2022/07/20 09:20:54;;;;;;;5.07;4.57;;;36.30;52.20;;;37.67;23.57;97944.72;5136815;28;20726;-55
2022/07/20 09:23:33;;;;;;;4.75;4.32;;;36.30;51.30;;;37.50;24.43;97945.56;5128392;28;20285;-57
2022/07/20 09:26:13;;;;;;;4.97;4.45;;;36.10;51.70;;;37.59;24.75;97950.44;5134428;28;20237;-59
2022/07/20 09:28:49;;;;;;;6.20;4.78;;;36.20;52.20;;;37.60;24.21;97941.50;5128976;28;20199;-57
2022/07/20 09:31:26;;;;;;;6.38;4.43;;;36.30;51.70;;;37.63;24.09;97935.13;5133149;28;20250;-58
2022/07/20 09:34:03;;;;;;;5.65;4.57;;;36.20;51.20;;;37.59;24.28;97934.44;5140951;28;20289;-56
2022/07/20 09:36:41;;;;;;;4.72;4.28;;;36.20;51.30;;;37.72;23.88;97933.78;5130556;28;20752;-54
2022/07/20 09:39:17;;;;;;;5.22;4.60;;;36.40;51.20;;;37.93;24.33;97938.03;5131716;28;20246;-56
2022/07/20 09:41:54;;;;;;;5.22;4.85;;;36.80;51.20;;;37.81;23.73;97938.66;5134779;28;20342;-58
2022/07/20 09:44:30;;;;;;;5.07;4.40;;;36.70;51.10;;;37.70;23.94;97938.38;5131450;28;20257;-56
2022/07/20 09:47:12;;;;;;;5.15;4.40;;;36.50;50.90;;;37.75;23.64;97939.00;5131716;28;20258;-62
2022/07/20 09:49:46;;;;;;;5.82;4.45;;;36.50;51.80;;;37.71;24.26;97938.28;5138706;28;20783;-62
2022/07/20 09:52:20;;;;;;;5.78;4.38;;;36.50;51.50;;;37.71;23.49;97935.59;5135797;28;20247;-63
2022/07/20 09:55:08;;;;;;;5.13;4.43;;;36.50;50.60;;;37.79;22.84;97925.41;5138274;28;20199;-61
2022/07/20 09:57:41;;;;;;;5.15;4.65;;;36.50;50.00;;;37.84;23.18;97926.03;5131662;28;20220;-61
2022/07/20 10:00:15;;;;;;;5.03;4.50;;;36.60;50.60;;;37.74;23.00;97934.59;5127615;28;20235;-61
2022/07/20 10:02:53;;;;;;;5.50;4.70;;;36.60;49.60;;;37.68;22.94;97921.56;5128930;28;20255;-59
2022/07/20 10:05:34;;;;;;;4.90;4.40;;;36.50;50.10;;;37.77;23.35;97918.41;5133188;28;20262;-61
2022/07/20 10:08:10;;;;;;;4.78;4.35;;;36.60;49.90;;;37.39;24.12;97913.22;5139340;28;20200;-60
2022/07/20 10:10:43;;;;;;;6.38;5.05;;;36.20;50.10;;;37.57;24.79;97922.09;5133888;28;20199;-61
2022/07/20 10:13:17;;;;;;;5.28;4.35;;;36.40;51.30;;;37.63;23.88;97925.34;5133319;28;20200;-62
2022/07/20 10:16:02;;;;;;;5.30;4.50;;;36.60;49.70;;;37.56;22.78;97918.59;5133855;28;20660;-60
2022/07/20 10:18:36;;;;;;;4.75;4.05;;;36.60;48.40;;;37.57;21.63;97928.31;5131152;28;20223;-60
2022/07/20 10:21:39;;;;;;;5.18;4.35;;;36.60;48.10;;;37.53;21.79;97924.06;5132359;28;20652;-62
2022/07/20 10:24:25;;;;;;;4.45;4.15;;;36.50;47.50;;;37.44;22.87;97924.53;5139551;28;20607;-61
2022/07/20 10:27:26;;;;;;;5.78;4.82;;;36.50;49.00;;;37.60;23.21;97919.28;5137556;28;20239;-61
2022/07/20 10:30:19;;;;;;;4.72;4.22;;;36.60;49.20;;;37.74;21.70;97910.56;5130693;28;20251;-61
2022/07/20 10:33:01;;;;;;;5.10;4.45;;;36.70;48.50;;;37.75;22.85;97912.31;5136070;28;20261;-61
2022/07/20 10:35:38;;;;;;;6.65;4.60;;;36.60;49.50;;;37.58;23.51;97911.38;5145521;28;20270;-61
2022/07/20 10:38:12;;;;;;;6.10;4.47;;;36.60;49.90;;;37.56;23.55;97899.91;5140106;28;20215;-61
2022/07/20 10:44:30;;;;;;;5.47;4.88;;;36.70;48.80;;;37.72;23.14;97899.09;5134947;28;20203;-62
2022/07/20 10:47:03;;;;;;;5.55;5.03;;;36.70;48.80;;;37.69;22.78;97899.25;5127947;28;20199;-60
2022/07/20 10:50:00;;;;;;;4.68;4.22;;;36.70;49.00;;;37.66;22.85;97894.97;5133695;28;20231;-62
2022/07/20 10:52:35;;;;;;;5.38;4.88;;;36.70;48.90;;;37.69;22.84;97901.94;5144415;28;20228;-62
2022/07/20 10:55:53;;;;;;;6.72;5.03;;;36.70;48.90;;;37.61;23.78;97895.19;5133798;28;20196;-62
2022/07/20 10:58:31;;;;;;;5.00;4.47;;;36.70;49.50;;;37.55;23.42;97900.00;5123064;28;20659;-62